CheckWX is a tool to help pilots better visualize weather data.  It is not intended as a substitute for an official pre-flight weather briefing.

23:23:49 UTC

YPWR TAF
Woomera Airfield Airport
Woomera, Australia
TAF YPWR 161655Z 1618/1712 16014KT CAVOK FM170000 13010KT CAVOK FM170400 16008KT CAVOK

Nov-16@
18:00 UTC

Nov-16 @ 18:00 UTC

Nov-17@
00:00 UTC

Nov-17 @ 00:00 UTC

TAF YPWR 161655Z 1618/1712 16014KT CAVOK
Wind
  • 160° at 14 KTS
Conditions
No significant weather
Cloud Levels
  • No significant clouds

Nov-17@
00:00 UTC

Nov-17 @ 00:00 UTC

Nov-17@
04:00 UTC

Nov-17 @ 04:00 UTC

FM170000 13010KT CAVOK

From

From Standard forecast or significant change

Wind
  • 130° at 10 KTS
Conditions
No significant weather
Cloud Levels
  • No significant clouds

Nov-17@
04:00 UTC

Nov-17 @ 04:00 UTC

Nov-17@
12:00 UTC

Nov-17 @ 12:00 UTC

FM170400 16008KT CAVOK

From

From Standard forecast or significant change

Wind
  • 160° at 8 KTS
Conditions
No significant weather
Cloud Levels
  • No significant clouds